createdAt,value
2019-01-15T00:02:24.756Z,3.30
2019-01-15T00:05:05.118Z,3.30
2019-01-15T00:07:45.068Z,3.40
2019-01-15T00:10:25.320Z,3.40
2019-01-15T00:13:05.150Z,3.30
2019-01-15T00:15:45.336Z,3.30
2019-01-15T00:18:25.568Z,3.30
2019-01-15T00:21:05.310Z,3.30
2019-01-15T00:23:45.988Z,3.40
2019-01-15T00:26:25.480Z,3.30
2019-01-15T00:29:06.864Z,3.30
2019-01-15T00:31:46.975Z,3.40
2019-01-15T00:34:27.452Z,3.30
2019-01-15T00:37:07.698Z,3.30
2019-01-15T00:39:47.616Z,3.30
2019-01-15T00:42:27.597Z,3.30
2019-01-15T00:45:08.468Z,3.30
2019-01-15T00:47:48.395Z,3.30
2019-01-15T00:50:29.036Z,3.30
2019-01-15T00:53:08.674Z,3.30
2019-01-15T00:55:48.766Z,3.30
2019-01-15T00:58:28.756Z,3.30
2019-01-15T01:01:09.094Z,3.20
2019-01-15T01:03:49.149Z,3.20
2019-01-15T01:06:28.995Z,3.20
2019-01-15T01:09:09.611Z,3.20
2019-01-15T01:11:50.064Z,3.20
2019-01-15T01:14:30.410Z,3.20
2019-01-15T01:17:10.552Z,3.10
2019-01-15T01:19:50.436Z,3.10
2019-01-15T01:22:30.740Z,3.10
2019-01-15T01:25:10.687Z,3.00
2019-01-15T01:27:50.685Z,3.00
2019-01-15T01:30:31.004Z,3.00
2019-01-15T01:33:10.872Z,3.00
2019-01-15T01:35:51.036Z,3.00
2019-01-15T01:38:31.126Z,3.10
2019-01-15T01:41:11.068Z,3.10
2019-01-15T01:43:51.141Z,3.20
2019-01-15T01:46:31.457Z,3.20
2019-01-15T01:49:11.531Z,3.30
2019-01-15T01:51:51.704Z,3.30
2019-01-15T01:54:31.524Z,3.30
2019-01-15T01:57:11.793Z,3.20
2019-01-15T01:59:52.052Z,3.30
2019-01-15T02:02:32.852Z,3.30
2019-01-15T02:05:13.082Z,3.30
2019-01-15T02:07:53.160Z,3.30
2019-01-15T02:10:33.008Z,3.20
2019-01-15T02:13:13.040Z,3.20
2019-01-15T02:15:53.268Z,3.20
2019-01-15T02:18:33.134Z,3.20
2019-01-15T02:21:13.104Z,3.20
2019-01-15T02:23:53.691Z,3.20
2019-01-15T02:26:34.748Z,3.20
2019-01-15T02:29:14.993Z,3.20
2019-01-15T02:31:55.033Z,3.20
2019-01-15T02:34:35.049Z,3.20
2019-01-15T02:37:15.534Z,3.20
2019-01-15T02:39:55.487Z,3.20
2019-01-15T02:42:35.692Z,3.10
2019-01-15T02:45:16.797Z,3.10
2019-01-15T02:47:56.514Z,3.10
2019-01-15T02:50:36.805Z,3.20
2019-01-15T02:53:16.940Z,3.10
2019-01-15T02:55:58.451Z,3.10
2019-01-15T02:58:38.982Z,3.10
2019-01-15T03:01:18.688Z,3.10
2019-01-15T03:03:58.975Z,3.20
2019-01-15T03:06:40.284Z,3.10
2019-01-15T03:09:20.448Z,3.20
2019-01-15T03:12:00.204Z,3.20
2019-01-15T03:14:40.225Z,3.20
2019-01-15T03:17:20.676Z,3.20
2019-01-15T03:20:00.377Z,3.20
2019-01-15T03:22:40.908Z,3.20
2019-01-15T03:25:20.796Z,3.20
2019-01-15T03:28:00.667Z,3.20
2019-01-15T03:30:40.831Z,3.20
2019-01-15T03:33:21.024Z,3.20
2019-01-15T03:36:00.990Z,3.20
2019-01-15T03:38:41.146Z,3.20
2019-01-15T03:41:21.108Z,3.30
2019-01-15T03:44:01.321Z,3.20
2019-01-15T03:46:41.554Z,3.30
2019-01-15T03:49:21.781Z,3.30
2019-01-15T03:52:02.615Z,3.30
2019-01-15T03:54:42.563Z,3.30
2019-01-15T03:57:22.749Z,3.30
2019-01-15T04:00:02.934Z,3.30
2019-01-15T04:02:43.138Z,3.30
2019-01-15T04:05:22.876Z,3.30
2019-01-15T04:08:02.768Z,3.30
2019-01-15T04:10:43.285Z,3.30
2019-01-15T04:13:23.490Z,3.30
2019-01-15T04:16:03.860Z,3.30
2019-01-15T04:18:43.463Z,3.30
2019-01-15T04:21:24.016Z,3.30
2019-01-15T04:24:03.794Z,3.30
2019-01-15T04:26:43.770Z,3.30
2019-01-15T04:29:23.777Z,3.30
2019-01-15T04:32:03.562Z,3.30
2019-01-15T04:34:43.604Z,3.30
2019-01-15T04:37:23.798Z,3.30
2019-01-15T04:40:03.717Z,3.30
2019-01-15T04:42:43.779Z,3.30
2019-01-15T04:45:23.761Z,3.30
2019-01-15T04:48:03.851Z,3.30
2019-01-15T04:50:44.297Z,3.30
2019-01-15T04:53:24.098Z,3.30
2019-01-15T04:56:04.022Z,3.40
2019-01-15T04:58:44.022Z,3.40
2019-01-15T05:01:24.072Z,3.30
2019-01-15T05:04:04.565Z,3.30
2019-01-15T05:06:44.254Z,3.40
2019-01-15T05:09:24.413Z,3.40
2019-01-15T05:12:04.951Z,3.40
2019-01-15T05:14:44.934Z,3.40
2019-01-15T05:17:25.013Z,3.30
2019-01-15T05:20:05.894Z,3.30
2019-01-15T05:22:45.714Z,3.30
2019-01-15T05:25:25.527Z,3.30
2019-01-15T05:28:05.621Z,3.30
2019-01-15T05:30:45.384Z,3.30
2019-01-15T05:33:25.504Z,3.30
2019-01-15T05:36:05.608Z,3.30
2019-01-15T05:38:45.499Z,3.30
2019-01-15T05:41:25.496Z,3.30
2019-01-15T05:44:05.950Z,3.30
2019-01-15T05:46:45.873Z,3.30
2019-01-15T05:49:25.964Z,3.30
2019-01-15T05:52:06.384Z,3.50
2019-01-15T05:54:46.385Z,3.60
2019-01-15T05:57:26.079Z,3.60
2019-01-15T06:00:06.225Z,3.50
2019-01-15T06:02:46.351Z,3.50
2019-01-15T06:05:26.624Z,3.50
2019-01-15T06:08:06.462Z,3.50
2019-01-15T06:10:46.444Z,3.50
2019-01-15T06:13:26.696Z,3.50
2019-01-15T06:16:06.524Z,3.50
2019-01-15T06:18:47.010Z,3.50
2019-01-15T06:21:26.899Z,3.40
2019-01-15T06:24:06.964Z,3.50
2019-01-15T06:26:47.273Z,3.50
2019-01-15T06:29:27.669Z,3.50
2019-01-15T06:32:07.614Z,3.50
2019-01-15T06:34:47.733Z,3.50
2019-01-15T06:37:27.987Z,3.50
2019-01-15T06:40:08.131Z,3.50
2019-01-15T06:42:48.578Z,3.50
2019-01-15T06:45:28.869Z,3.50
2019-01-15T06:48:08.534Z,3.50
2019-01-15T06:50:48.590Z,3.40
2019-01-15T06:53:28.725Z,3.40
2019-01-15T06:56:08.730Z,3.40
2019-01-15T06:58:48.748Z,3.40
2019-01-15T07:01:28.997Z,3.30
2019-01-15T07:04:09.021Z,3.30
2019-01-15T07:06:49.211Z,3.30
2019-01-15T07:09:29.520Z,3.30
2019-01-15T07:12:09.604Z,3.40
2019-01-15T07:14:49.782Z,3.40
2019-01-15T07:17:29.938Z,3.40
2019-01-15T07:20:14.007Z,3.40
2019-01-15T07:22:53.976Z,3.40
2019-01-15T07:25:33.896Z,3.40
2019-01-15T07:28:14.143Z,3.40
2019-01-15T07:30:54.443Z,3.40
2019-01-15T07:33:34.592Z,3.40
2019-01-15T07:36:14.660Z,3.50
2019-01-15T07:38:54.524Z,3.40
2019-01-15T07:41:34.582Z,3.40
2019-01-15T07:44:15.031Z,3.50
2019-01-15T07:46:56.248Z,3.50
2019-01-15T07:49:36.040Z,3.50
2019-01-15T07:52:16.072Z,3.50
2019-01-15T07:54:56.106Z,3.50
2019-01-15T07:57:36.465Z,3.50
2019-01-15T08:00:16.506Z,3.50
2019-01-15T08:02:56.462Z,3.50
2019-01-15T08:05:37.412Z,3.50
2019-01-15T08:08:17.576Z,3.50
2019-01-15T08:10:57.845Z,3.50
2019-01-15T08:13:37.887Z,3.50
2019-01-15T08:16:18.284Z,3.60
2019-01-15T08:18:58.328Z,3.60
2019-01-15T08:21:38.680Z,3.60
2019-01-15T08:24:18.816Z,3.70
2019-01-15T08:26:58.704Z,3.70
2019-01-15T08:29:39.120Z,3.70
2019-01-15T08:32:19.192Z,3.70
2019-01-15T08:34:59.382Z,3.80
2019-01-15T08:37:39.960Z,3.80
2019-01-15T08:40:20.269Z,3.80
2019-01-15T08:43:00.259Z,3.80
2019-01-15T08:45:40.312Z,3.80
2019-01-15T08:48:22.899Z,3.80
2019-01-15T08:51:03.504Z,3.80
2019-01-15T08:53:44.320Z,3.80
2019-01-15T08:56:24.181Z,3.80
2019-01-15T09:02:02.479Z,3.80
2019-01-15T09:04:42.506Z,3.90
2019-01-15T09:07:23.055Z,3.90
2019-01-15T09:10:02.984Z,3.90
2019-01-15T09:12:43.047Z,3.90
2019-01-15T09:15:23.219Z,3.90
2019-01-15T09:18:03.052Z,3.90
2019-01-15T09:20:43.118Z,3.90
2019-01-15T09:23:23.201Z,4.00
2019-01-15T09:26:03.257Z,4.00
2019-01-15T09:28:43.086Z,4.00
2019-01-15T09:31:23.234Z,4.10
2019-01-15T09:34:03.329Z,4.10
2019-01-15T09:36:43.408Z,4.20
2019-01-15T09:39:23.627Z,4.20
2019-01-15T09:42:03.663Z,4.20
2019-01-15T09:44:44.278Z,4.20
2019-01-15T09:47:24.041Z,4.30
2019-01-15T09:50:04.069Z,4.30
2019-01-15T09:52:44.333Z,4.30
2019-01-15T09:55:24.462Z,4.30
2019-01-15T09:58:04.584Z,4.40
2019-01-15T10:00:44.646Z,4.40
2019-01-15T10:03:24.589Z,4.40
2019-01-15T10:06:04.765Z,4.40
2019-01-15T10:08:45.096Z,4.50
2019-01-15T10:11:25.502Z,4.50
2019-01-15T10:14:05.428Z,4.50
2019-01-15T10:16:45.440Z,4.50
2019-01-15T10:19:25.368Z,4.60
2019-01-15T10:22:05.715Z,4.70
2019-01-15T10:24:45.805Z,4.70
2019-01-15T10:27:25.675Z,4.80
2019-01-15T10:30:06.096Z,4.90
2019-01-15T10:32:46.563Z,4.90
2019-01-15T10:35:26.588Z,4.80
2019-01-15T10:38:07.057Z,4.80
2019-01-15T10:40:47.094Z,4.80
2019-01-15T10:43:26.726Z,4.80
2019-01-15T10:46:06.853Z,4.80
2019-01-15T10:48:47.332Z,4.80
2019-01-15T10:51:27.204Z,4.80
2019-01-15T10:54:08.346Z,4.80
2019-01-15T10:56:48.510Z,4.80
2019-01-15T10:59:28.721Z,4.80
2019-01-15T11:02:08.647Z,4.80
2019-01-15T11:04:49.436Z,4.80
2019-01-15T11:07:29.706Z,4.80
2019-01-15T11:10:09.536Z,4.80
2019-01-15T11:12:49.364Z,4.80
2019-01-15T11:15:29.680Z,4.80
2019-01-15T11:18:09.858Z,4.80
2019-01-15T11:20:49.902Z,4.80
2019-01-15T11:23:30.926Z,4.90
2019-01-15T11:26:10.899Z,4.80
2019-01-15T11:28:51.200Z,4.90
2019-01-15T11:31:31.788Z,4.90
2019-01-15T11:34:11.461Z,4.90
2019-01-15T11:36:51.886Z,4.90
2019-01-15T11:39:31.815Z,5.00
2019-01-15T11:42:11.964Z,5.00
2019-01-15T11:44:52.400Z,5.00
2019-01-15T11:47:32.204Z,5.00
2019-01-15T11:50:12.057Z,5.00
2019-01-15T11:52:52.501Z,5.00
2019-01-15T11:55:32.355Z,5.00
2019-01-15T11:58:12.880Z,5.10
2019-01-15T12:04:20.151Z,5.10
2019-01-15T12:07:19.436Z,5.10
2019-01-15T12:10:19.654Z,5.10
2019-01-15T12:13:19.485Z,5.20
2019-01-15T12:16:18.965Z,5.20
2019-01-15T12:19:09.369Z,5.20
2019-01-15T12:22:08.930Z,5.30
2019-01-15T12:25:08.284Z,5.30
2019-01-15T12:28:07.551Z,5.30
2019-01-15T12:31:14.058Z,5.30
2019-01-15T12:34:13.869Z,5.30
2019-01-15T12:37:13.012Z,5.40
2019-01-15T12:40:12.436Z,5.40
2019-01-15T12:43:19.275Z,5.40
2019-01-15T12:46:18.470Z,5.40
2019-01-15T12:49:17.586Z,5.40
2019-01-15T12:52:16.912Z,5.50
2019-01-15T12:55:16.236Z,5.40
2019-01-15T12:58:15.383Z,5.50
2019-01-15T13:01:22.036Z,5.50
2019-01-15T13:04:28.496Z,5.50
2019-01-15T13:07:34.092Z,5.50
2019-01-15T13:10:34.102Z,5.50
2019-01-15T13:13:33.411Z,5.60
2019-01-15T13:16:33.482Z,5.60
2019-01-15T13:19:33.621Z,5.60
2019-01-15T13:22:32.858Z,5.60
2019-01-15T13:25:32.056Z,5.60
2019-01-15T13:28:31.258Z,5.60
2019-01-15T13:31:19.234Z,5.70
2019-01-15T13:34:18.423Z,5.70
2019-01-15T13:37:06.614Z,5.70
2019-01-15T13:40:13.190Z,5.70
2019-01-15T13:43:12.994Z,5.80
2019-01-15T13:46:14.208Z,5.80
2019-01-15T13:49:07.565Z,5.80
2019-01-15T13:52:10.374Z,5.80
2019-01-15T13:55:09.565Z,5.90
2019-01-15T13:58:08.765Z,5.80
2019-01-15T14:01:08.197Z,5.90
2019-01-15T14:04:00.382Z,5.90
2019-01-15T14:06:53.785Z,5.90
2019-01-15T14:09:53.502Z,5.90
2019-01-15T14:12:52.851Z,5.90
2019-01-15T14:15:58.324Z,6.00
2019-01-15T14:18:49.393Z,5.90
2019-01-15T14:21:48.939Z,5.90
2019-01-15T14:24:58.319Z,5.90
2019-01-15T14:28:39.460Z,5.90
2019-01-15T14:31:45.083Z,6.00
2019-01-15T14:34:44.417Z,5.90
2019-01-15T14:37:44.799Z,5.90
2019-01-15T14:40:44.799Z,5.90
2019-01-15T14:43:44.827Z,5.90
2019-01-15T14:46:50.515Z,6.00
2019-01-15T14:49:52.207Z,6.00
2019-01-15T14:52:51.617Z,6.00
2019-01-15T14:55:54.109Z,5.90
2019-01-15T14:58:54.182Z,6.00
2019-01-15T15:01:53.533Z,6.00
2019-01-15T15:05:00.642Z,6.00
2019-01-15T15:07:51.445Z,6.00
2019-01-15T15:10:51.003Z,6.00
2019-01-15T15:13:51.702Z,6.00
2019-01-15T15:16:46.635Z,6.00
2019-01-15T15:19:46.650Z,6.00
2019-01-15T15:22:45.885Z,6.00
2019-01-15T15:25:45.129Z,6.00
2019-01-15T15:32:35.532Z,6.00
2019-01-15T15:35:35.323Z,6.10
2019-01-15T15:38:34.783Z,6.10
2019-01-15T15:41:40.360Z,6.10
2019-01-15T15:44:39.560Z,6.10
2019-01-15T15:47:39.480Z,6.00
2019-01-15T15:50:38.763Z,6.10
2019-01-15T15:53:37.957Z,6.10
2019-01-15T15:56:38.334Z,6.20
2019-01-15T15:59:38.261Z,6.20
2019-01-15T16:02:43.591Z,6.20
2019-01-15T16:05:37.444Z,6.20
2019-01-15T16:08:36.773Z,6.20
2019-01-15T16:11:35.956Z,6.20
2019-01-15T16:14:23.992Z,6.10
2019-01-15T16:17:17.888Z,6.20
2019-01-15T16:20:17.910Z,6.20
2019-01-15T16:23:18.207Z,6.20
2019-01-15T16:26:09.008Z,6.10
2019-01-15T16:29:14.363Z,6.20
2019-01-15T16:32:04.925Z,6.10
2019-01-15T16:35:04.194Z,6.10
2019-01-15T16:37:56.170Z,6.10
2019-01-15T16:40:52.950Z,6.10
2019-01-15T16:43:55.252Z,6.10
2019-01-15T16:46:54.658Z,6.10
2019-01-15T16:49:46.356Z,6.10
2019-01-15T16:52:42.184Z,6.00
2019-01-15T16:55:41.864Z,6.10
2019-01-15T16:58:41.186Z,6.00
2019-01-15T17:01:40.338Z,6.00
2019-01-15T17:04:39.558Z,6.00
2019-01-15T17:07:35.318Z,6.00
2019-01-15T17:10:26.440Z,6.00
2019-01-15T17:13:47.986Z,6.00
2019-01-15T17:16:47.811Z,6.00
2019-01-15T17:19:48.025Z,6.00
2019-01-15T17:22:42.552Z,6.00
2019-01-15T17:25:41.987Z,6.00
2019-01-15T17:28:36.088Z,6.00
2019-01-15T17:31:38.211Z,5.90
2019-01-15T17:34:37.469Z,5.90
2019-01-15T17:37:39.990Z,5.90
2019-01-15T17:40:42.092Z,5.90
2019-01-15T17:43:41.103Z,5.90
2019-01-15T17:46:28.477Z,5.90
2019-01-15T17:49:30.459Z,5.90
2019-01-15T17:52:22.049Z,5.90
2019-01-15T17:55:22.348Z,5.90
2019-01-15T17:58:22.473Z,5.90
2019-01-15T18:01:28.185Z,5.80
2019-01-15T18:04:27.328Z,5.90
2019-01-15T18:07:27.320Z,5.80
2019-01-15T18:10:26.346Z,5.80
2019-01-15T18:13:25.812Z,5.90
2019-01-15T18:16:17.150Z,5.80
2019-01-15T18:19:16.699Z,5.90
2019-01-15T18:22:16.048Z,5.80
2019-01-15T18:25:15.277Z,5.80
2019-01-15T18:28:14.545Z,5.80
2019-01-15T18:31:16.619Z,5.80
2019-01-15T18:34:15.134Z,5.80
2019-01-15T18:37:13.554Z,5.80
2019-01-15T18:40:19.605Z,5.80
2019-01-15T18:43:14.728Z,5.80
2019-01-15T18:46:14.662Z,5.80
2019-01-15T18:49:13.943Z,5.80
2019-01-15T18:52:13.059Z,5.80
2019-01-15T18:55:15.109Z,5.80
2019-01-15T18:58:37.013Z,5.70
2019-01-15T19:01:34.768Z,5.80
2019-01-15T19:04:34.787Z,5.80
2019-01-15T19:07:27.233Z,5.80
2019-01-15T19:10:26.482Z,5.70
2019-01-15T19:13:25.963Z,5.70
2019-01-15T19:16:25.774Z,5.70
2019-01-15T19:19:20.870Z,5.70
2019-01-15T19:22:20.268Z,5.80
2019-01-15T19:25:13.685Z,5.80
2019-01-15T19:27:59.163Z,5.80
2019-01-15T19:30:56.352Z,5.80
2019-01-15T19:33:56.120Z,5.80
2019-01-15T19:36:52.088Z,5.80
2019-01-15T19:39:51.842Z,5.80
2019-01-15T19:42:51.014Z,5.80
2019-01-15T19:45:45.747Z,5.80
2019-01-15T19:48:40.753Z,5.70
2019-01-15T19:51:40.702Z,5.70
2019-01-15T19:54:40.012Z,5.70
2019-01-15T19:57:40.150Z,5.70
2019-01-15T20:00:36.094Z,5.60
2019-01-15T20:03:36.012Z,5.60
2019-01-15T20:06:25.528Z,5.60
2019-01-15T20:09:47.252Z,5.60
2019-01-15T20:12:44.828Z,5.60
2019-01-15T20:15:51.275Z,5.50
2019-01-15T20:18:50.809Z,5.60
2019-01-15T20:21:50.727Z,5.50
2019-01-15T20:24:49.849Z,5.50
2019-01-15T20:27:52.166Z,5.40
2019-01-15T20:30:38.421Z,5.40
2019-01-15T20:33:31.526Z,5.40
2019-01-15T20:36:31.572Z,5.40
2019-01-15T20:39:23.556Z,5.40
2019-01-15T20:42:22.881Z,5.40
2019-01-15T20:45:24.976Z,5.40
2019-01-15T20:48:24.346Z,5.30
2019-01-15T20:51:26.518Z,5.30
2019-01-15T20:54:26.626Z,5.30
2019-01-15T20:57:26.841Z,5.30
2019-01-15T21:00:32.827Z,5.30
2019-01-15T21:03:32.108Z,5.30
2019-01-15T21:06:31.561Z,5.30
2019-01-15T21:09:31.528Z,5.30
2019-01-15T21:12:30.838Z,5.30
2019-01-15T21:15:29.951Z,5.30
2019-01-15T21:18:29.208Z,5.30
2019-01-15T21:21:28.266Z,5.30
2019-01-15T21:24:28.386Z,5.30
2019-01-15T21:27:23.972Z,5.30
2019-01-15T21:30:23.236Z,5.30
2019-01-15T21:33:22.908Z,5.30
2019-01-15T21:36:25.724Z,5.30
2019-01-15T21:39:25.172Z,5.30
2019-01-15T21:42:24.294Z,5.30
2019-01-15T21:45:29.981Z,5.30
2019-01-15T21:48:29.188Z,5.30
2019-01-15T21:51:28.514Z,5.30
2019-01-15T21:54:27.653Z,5.30
2019-01-15T21:57:21.124Z,5.30
2019-01-15T22:00:21.217Z,5.30
2019-01-15T22:03:10.902Z,5.30
2019-01-15T22:06:13.181Z,5.30
2019-01-15T22:09:15.833Z,5.30
2019-01-15T22:12:15.781Z,5.30
2019-01-15T22:15:15.360Z,5.30
2019-01-15T22:18:15.198Z,5.30
2019-01-15T22:21:14.394Z,5.30
2019-01-15T22:24:13.414Z,5.30
2019-01-15T22:27:12.609Z,5.20
2019-01-15T22:30:12.040Z,5.30
2019-01-15T22:33:11.343Z,5.30
2019-01-15T22:36:10.637Z,5.30
2019-01-15T22:42:54.278Z,5.30
2019-01-15T22:45:53.788Z,5.20
2019-01-15T22:48:56.553Z,5.30
2019-01-15T22:51:56.079Z,5.30
2019-01-15T22:54:56.230Z,5.20
2019-01-15T22:57:55.619Z,5.20
2019-01-15T23:01:01.923Z,5.30
2019-01-15T23:04:26.029Z,5.20
2019-01-15T23:07:26.039Z,5.20
2019-01-15T23:10:25.410Z,5.20
2019-01-15T23:13:31.576Z,5.20
2019-01-15T23:16:19.709Z,5.20
2019-01-15T23:19:47.062Z,5.20
2019-01-15T23:22:48.913Z,5.20
2019-01-15T23:25:48.117Z,5.10
2019-01-15T23:28:48.150Z,5.10
2019-01-15T23:31:34.746Z,5.10
2019-01-15T23:34:22.959Z,5.20
2019-01-15T23:37:16.548Z,5.20
2019-01-15T23:40:07.836Z,5.10
2019-01-15T23:42:53.301Z,5.20
2019-01-15T23:45:59.779Z,5.20
2019-01-15T23:48:59.895Z,5.20
2019-01-15T23:51:59.917Z,5.20
2019-01-15T23:55:00.333Z,5.20
2019-01-15T23:58:06.776Z,5.20
